Time;durP1;ratioP1;P1;durP2;ratioP2;P2;SDS_P1;SDS_P2;PMS_P1;PMS_P2;Temp;Humidity;BMP_temperature;BMP_pressure;BME280_temperature;BME280_humidity;BME280_pressure;Samples;Min_cycle;Max_cycle;Signal;HPM_P1;HPM_P2
2021/03/31 00:00:29;;;;;;;21.37;16.10;;;7.40;99.90;;;;;;4988729;28;20678;-63
2021/03/31 00:02:58;;;;;;;21.20;17.07;;;7.40;99.90;;;;;;4992251;28;20564;-61
2021/03/31 00:05:24;;;;;;;23.07;16.53;;;7.40;99.90;;;;;;4989026;28;20252;-63
2021/03/31 00:07:51;;;;;;;22.60;16.53;;;7.50;99.90;;;;;;4988643;28;20213;-62
2021/03/31 00:10:21;;;;;;;25.33;17.00;;;7.70;99.90;;;;;;4990409;28;20255;-61
2021/03/31 00:12:48;;;;;;;23.20;16.10;;;7.70;99.90;;;;;;4989226;28;20250;-65
2021/03/31 00:15:16;;;;;;;19.43;14.97;;;7.70;99.90;;;;;;4991043;28;20194;-62
2021/03/31 00:17:42;;;;;;;21.90;16.37;;;7.70;99.90;;;;;;4990097;28;20292;-62
2021/03/31 00:20:13;;;;;;;19.13;14.77;;;7.60;99.90;;;;;;4990569;28;20201;-61
2021/03/31 00:22:40;;;;;;;21.83;15.37;;;7.40;99.90;;;;;;4991037;28;20202;-63
2021/03/31 00:25:07;;;;;;;20.60;14.40;;;7.30;99.90;;;;;;4991452;28;20206;-63
2021/03/31 00:27:35;;;;;;;18.67;13.93;;;7.20;99.90;;;;;;4991132;28;20206;-64
2021/03/31 00:30:02;;;;;;;20.93;15.00;;;7.10;99.90;;;;;;4989386;28;20209;-64
2021/03/31 00:32:28;;;;;;;23.10;16.03;;;7.10;99.90;;;;;;4992203;28;20213;-62
2021/03/31 00:34:55;;;;;;;22.20;14.93;;;7.10;99.90;;;;;;4995720;28;20689;-63
2021/03/31 00:37:21;;;;;;;23.23;16.77;;;7.10;99.90;;;;;;4993181;28;20237;-62
2021/03/31 00:39:48;;;;;;;21.87;15.67;;;6.90;99.90;;;;;;4991920;28;20206;-61
2021/03/31 00:42:14;;;;;;;23.93;16.23;;;6.90;99.90;;;;;;4990523;28;20197;-62
2021/03/31 00:44:41;;;;;;;22.77;15.90;;;6.80;99.90;;;;;;4993809;28;20202;-61
2021/03/31 00:47:08;;;;;;;24.50;15.93;;;6.80;99.90;;;;;;4995676;28;20651;-63
2021/03/31 00:49:35;;;;;;;21.83;15.93;;;6.70;99.90;;;;;;4992593;28;20202;-62
2021/03/31 00:52:02;;;;;;;22.17;16.10;;;6.80;99.90;;;;;;4994648;28;20218;-62
2021/03/31 00:54:29;;;;;;;31.83;17.40;;;6.80;99.90;;;;;;4993401;28;20229;-61
2021/03/31 00:56:56;;;;;;;23.50;16.60;;;6.80;99.90;;;;;;4992307;28;20221;-61
2021/03/31 00:59:22;;;;;;;21.43;16.50;;;7.10;99.90;;;;;;4990417;28;20647;-64
2021/03/31 01:01:50;;;;;;;23.27;15.63;;;7.10;99.90;;;;;;4994443;28;20221;-64
2021/03/31 01:04:16;;;;;;;20.80;15.87;;;7.00;99.90;;;;;;5010848;28;20205;-64
2021/03/31 01:06:43;;;;;;;20.33;15.23;;;6.90;99.90;;;;;;4997044;28;20193;-62
2021/03/31 01:09:09;;;;;;;20.93;15.30;;;6.90;99.90;;;;;;4985633;28;20198;-63
2021/03/31 01:11:42;;;;;;;22.50;16.40;;;6.80;99.90;;;;;;4983091;28;20209;-62
2021/03/31 01:14:14;;;;;;;19.10;14.30;;;6.70;99.90;;;;;;4981023;28;20197;-62
2021/03/31 01:16:47;;;;;;;21.13;15.77;;;6.70;99.90;;;;;;4981954;28;20249;-62
2021/03/31 01:19:35;;;;;;;19.37;14.83;;;6.70;99.90;;;;;;4983715;28;20209;-64
2021/03/31 01:22:46;;;;;;;20.27;14.70;;;6.70;99.90;;;;;;4981323;28;20206;-65
2021/03/31 01:25:21;;;;;;;21.43;14.67;;;6.70;99.90;;;;;;4922099;29;20243;-64
2021/03/31 01:28:07;;;;;;;22.40;15.83;;;6.60;99.90;;;;;;4970273;28;20283;-65
2021/03/31 01:30:41;;;;;;;19.80;14.93;;;6.50;99.90;;;;;;4980731;28;20255;-64
2021/03/31 01:33:51;;;;;;;20.20;14.87;;;6.50;99.90;;;;;;4981558;28;20566;-64
2021/03/31 01:36:20;;;;;;;21.90;15.93;;;6.40;99.90;;;;;;4979259;28;20226;-64
2021/03/31 01:38:51;;;;;;;21.33;15.37;;;6.30;99.90;;;;;;4981056;28;20202;-63
2021/03/31 01:41:19;;;;;;;21.70;15.43;;;6.30;99.90;;;;;;4980330;28;20571;-66
2021/03/31 01:43:49;;;;;;;24.63;15.57;;;6.30;99.90;;;;;;4980507;28;20197;-64
2021/03/31 01:46:17;;;;;;;19.10;15.17;;;6.20;99.90;;;;;;4979995;28;20221;-64
2021/03/31 01:48:45;;;;;;;20.47;15.33;;;6.20;99.90;;;;;;4979683;28;20206;-64
2021/03/31 01:51:13;;;;;;;19.10;15.13;;;6.20;99.90;;;;;;4981345;28;20679;-64
2021/03/31 01:53:41;;;;;;;22.97;16.10;;;6.20;99.90;;;;;;4982618;28;20233;-64
2021/03/31 01:56:08;;;;;;;22.23;16.27;;;6.20;99.90;;;;;;4981974;28;20230;-63
2021/03/31 01:58:36;;;;;;;22.53;17.03;;;6.20;99.90;;;;;;4981223;28;20705;-62
2021/03/31 02:01:03;;;;;;;21.43;16.00;;;6.30;99.90;;;;;;4979213;28;20206;-62
2021/03/31 02:03:31;;;;;;;25.10;16.20;;;6.30;99.90;;;;;;4981633;28;20197;-61
2021/03/31 02:05:58;;;;;;;26.60;16.33;;;6.30;99.90;;;;;;4981340;28;20259;-63
2021/03/31 02:08:26;;;;;;;23.73;17.30;;;6.30;99.90;;;;;;4980647;28;20209;-61
2021/03/31 02:10:54;;;;;;;23.87;17.63;;;6.30;99.90;;;;;;4981831;28;20560;-63
2021/03/31 02:13:21;;;;;;;24.37;16.13;;;6.30;99.90;;;;;;4981009;28;20205;-65
2021/03/31 02:15:55;;;;;;;22.93;16.20;;;6.30;99.90;;;;;;4980597;28;20210;-62
2021/03/31 02:18:22;;;;;;;22.13;16.70;;;6.40;99.90;;;;;;4979514;28;20208;-62
2021/03/31 02:20:53;;;;;;;26.33;15.50;;;6.30;99.90;;;;;;4979588;28;20210;-63
2021/03/31 02:23:20;;;;;;;23.20;16.60;;;6.30;99.90;;;;;;4979729;28;20198;-63
2021/03/31 02:25:48;;;;;;;22.23;15.77;;;6.30;99.90;;;;;;4980330;28;20229;-65
2021/03/31 02:28:15;;;;;;;22.93;15.20;;;6.20;99.90;;;;;;4980919;28;20202;-62
2021/03/31 02:30:42;;;;;;;19.53;14.23;;;6.10;99.90;;;;;;4981517;28;21318;-62
2021/03/31 02:33:11;;;;;;;19.50;14.37;;;6.10;99.90;;;;;;4993270;28;20194;-62
2021/03/31 02:35:40;;;;;;;21.60;15.17;;;6.00;99.90;;;;;;4980765;28;20252;-62
2021/03/31 02:38:10;;;;;;;20.53;15.23;;;5.90;99.90;;;;;;4982337;28;20678;-63
2021/03/31 02:40:38;;;;;;;21.23;15.63;;;5.90;99.90;;;;;;4978139;28;20252;-63
2021/03/31 02:43:07;;;;;;;18.00;14.90;;;5.90;99.90;;;;;;4979114;28;20201;-63
2021/03/31 02:45:36;;;;;;;19.87;15.13;;;5.90;99.90;;;;;;4980156;28;20221;-62
2021/03/31 02:48:06;;;;;;;22.03;16.27;;;5.90;99.90;;;;;;4979169;28;20256;-62
2021/03/31 02:50:34;;;;;;;21.30;16.40;;;5.90;99.90;;;;;;4980610;28;20201;-62
2021/03/31 02:53:01;;;;;;;21.83;16.00;;;5.90;99.90;;;;;;4979020;28;20198;-62
2021/03/31 02:55:28;;;;;;;19.50;15.50;;;5.90;99.90;;;;;;4978483;28;20541;-64
2021/03/31 02:57:55;;;;;;;18.73;14.80;;;5.90;99.90;;;;;;4990639;28;20604;-62
2021/03/31 03:00:23;;;;;;;22.93;17.13;;;5.80;99.90;;;;;;4993202;28;20260;-61
2021/03/31 03:02:52;;;;;;;22.43;17.00;;;5.80;99.90;;;;;;4993299;28;20201;-63
2021/03/31 03:05:20;;;;;;;21.70;17.27;;;6.00;99.90;;;;;;4992242;28;20263;-61
2021/03/31 03:07:48;;;;;;;25.43;17.47;;;6.10;99.90;;;;;;4992497;28;20201;-63
2021/03/31 03:10:15;;;;;;;23.77;16.77;;;6.10;99.90;;;;;;4992953;28;20209;-60
2021/03/31 03:12:46;;;;;;;18.73;15.17;;;6.00;99.90;;;;;;4991360;28;20205;-64
2021/03/31 03:15:16;;;;;;;19.23;15.80;;;6.00;99.90;;;;;;4993084;28;20320;-63
2021/03/31 03:17:42;;;;;;;19.47;15.27;;;5.90;99.90;;;;;;4992630;28;20705;-60
2021/03/31 03:20:12;;;;;;;19.33;14.77;;;5.90;99.90;;;;;;4991901;28;20213;-63
2021/03/31 03:22:40;;;;;;;22.30;15.13;;;5.90;99.90;;;;;;4991929;28;20217;-63
2021/03/31 03:25:09;;;;;;;22.53;15.20;;;5.90;99.90;;;;;;4991695;28;20218;-67
2021/03/31 03:27:38;;;;;;;19.57;14.70;;;5.80;99.90;;;;;;4991959;28;20293;-64
2021/03/31 03:30:07;;;;;;;19.63;14.63;;;5.80;99.90;;;;;;4992760;28;20208;-61
2021/03/31 03:32:34;;;;;;;20.03;15.17;;;5.80;99.90;;;;;;4992557;28;20528;-63
2021/03/31 03:35:02;;;;;;;19.87;15.17;;;5.90;99.90;;;;;;4991809;28;20216;-61
2021/03/31 03:37:29;;;;;;;19.97;15.57;;;5.80;99.90;;;;;;4991717;28;20630;-61
2021/03/31 03:39:56;;;;;;;24.27;15.90;;;5.90;99.90;;;;;;4992804;28;20253;-61
2021/03/31 03:42:23;;;;;;;23.60;15.87;;;5.80;99.90;;;;;;4991463;28;20205;-61
2021/03/31 03:44:49;;;;;;;24.87;16.63;;;5.80;99.90;;;;;;4992452;28;20202;-65
2021/03/31 03:47:18;;;;;;;22.43;17.23;;;5.90;99.90;;;;;;4992428;28;20194;-65
2021/03/31 03:49:44;;;;;;;23.70;17.37;;;5.90;99.90;;;;;;4991411;28;20202;-64
2021/03/31 03:52:12;;;;;;;21.40;17.83;;;5.90;99.90;;;;;;4992800;28;20544;-63
2021/03/31 03:54:39;;;;;;;22.10;17.27;;;5.90;99.90;;;;;;4990550;28;20202;-62
2021/03/31 03:57:07;;;;;;;22.60;17.00;;;5.90;99.90;;;;;;4990032;28;20229;-63
2021/03/31 03:59:35;;;;;;;24.90;17.73;;;5.90;99.90;;;;;;5006788;28;20201;-64
2021/03/31 04:02:02;;;;;;;25.33;16.80;;;5.90;99.90;;;;;;4991327;28;20205;-63
2021/03/31 04:04:28;;;;;;;20.73;16.67;;;5.90;99.90;;;;;;4992515;28;20209;-62
2021/03/31 04:06:59;;;;;;;21.77;16.57;;;5.90;99.90;;;;;;4993114;28;20594;-63
2021/03/31 04:09:25;;;;;;;23.73;16.90;;;5.90;99.90;;;;;;4976990;28;20206;-63
2021/03/31 04:11:54;;;;;;;26.70;18.03;;;5.90;99.90;;;;;;4993647;28;20626;-63
2021/03/31 04:14:21;;;;;;;24.63;18.00;;;5.90;99.90;;;;;;4996109;28;20670;-63
2021/03/31 04:16:49;;;;;;;24.47;16.77;;;5.80;99.90;;;;;;4996119;28;20232;-64
2021/03/31 04:19:18;;;;;;;19.60;15.67;;;5.70;99.90;;;;;;4996358;28;20202;-62
2021/03/31 04:21:45;;;;;;;23.87;16.87;;;5.70;99.90;;;;;;4996302;28;20256;-63
2021/03/31 04:24:13;;;;;;;19.73;15.07;;;5.60;99.90;;;;;;4989748;28;20213;-63
2021/03/31 04:26:40;;;;;;;21.57;14.70;;;5.60;99.90;;;;;;4993924;28;20206;-61
2021/03/31 04:29:09;;;;;;;23.03;16.10;;;5.50;99.90;;;;;;4995194;28;20663;-63
2021/03/31 04:31:37;;;;;;;21.70;16.97;;;5.50;99.90;;;;;;4993714;28;20229;-64
2021/03/31 04:34:04;;;;;;;23.47;16.73;;;5.40;99.90;;;;;;4996071;28;20540;-61
2021/03/31 04:36:31;;;;;;;28.57;16.03;;;5.40;99.90;;;;;;5002481;28;20308;-62
2021/03/31 04:38:58;;;;;;;23.10;16.40;;;5.30;99.90;;;;;;4993761;28;20202;-65
2021/03/31 04:41:24;;;;;;;19.73;14.87;;;5.30;99.90;;;;;;4981728;28;20208;-63
2021/03/31 04:43:51;;;;;;;25.37;17.13;;;5.20;99.90;;;;;;4981751;28;20241;-63
2021/03/31 04:46:18;;;;;;;21.13;15.80;;;5.20;99.90;;;;;;4984337;28;20244;-63
2021/03/31 04:48:45;;;;;;;22.23;16.43;;;5.20;99.90;;;;;;4981932;28;20257;-64
2021/03/31 04:51:11;;;;;;;23.70;17.27;;;5.20;99.90;;;;;;4978958;28;20205;-66
2021/03/31 04:53:37;;;;;;;24.00;16.57;;;5.10;99.90;;;;;;4993806;28;20354;-63
2021/03/31 04:56:06;;;;;;;23.27;17.17;;;5.20;99.90;;;;;;4995194;28;20198;-63
2021/03/31 04:58:32;;;;;;;25.93;17.23;;;5.20;99.90;;;;;;4994557;28;20205;-62
2021/03/31 05:00:59;;;;;;;25.00;17.13;;;5.10;99.90;;;;;;4992620;28;20462;-62
2021/03/31 05:03:27;;;;;;;23.50;16.37;;;5.10;99.90;;;;;;4995586;28;20248;-62
2021/03/31 05:05:53;;;;;;;23.23;16.27;;;5.10;99.90;;;;;;4995364;28;20194;-62
2021/03/31 05:08:20;;;;;;;24.40;15.87;;;5.00;99.90;;;;;;4994986;28;20205;-64
2021/03/31 05:10:47;;;;;;;21.57;16.50;;;5.00;99.90;;;;;;4993747;28;20329;-61
2021/03/31 05:13:14;;;;;;;22.57;17.00;;;5.00;99.90;;;;;;4994088;28;20205;-63
2021/03/31 05:15:41;;;;;;;26.33;18.77;;;4.90;99.90;;;;;;4992792;28;20201;-61
2021/03/31 05:18:07;;;;;;;25.23;18.40;;;4.90;99.90;;;;;;5000965;28;20244;-67
2021/03/31 05:20:35;;;;;;;27.43;19.73;;;4.90;99.90;;;;;;5014029;28;20205;-64
2021/03/31 05:23:02;;;;;;;23.87;17.37;;;4.90;99.90;;;;;;5003041;28;20675;-62
2021/03/31 05:25:28;;;;;;;27.87;18.50;;;5.00;99.90;;;;;;4991839;28;20257;-65
2021/03/31 05:27:55;;;;;;;24.50;18.83;;;5.00;99.90;;;;;;4990870;28;20670;-61
2021/03/31 05:30:23;;;;;;;24.83;18.17;;;5.00;99.90;;;;;;4994442;28;20237;-61
2021/03/31 05:32:49;;;;;;;22.63;18.63;;;5.10;99.90;;;;;;4994577;28;20194;-63
2021/03/31 05:35:16;;;;;;;23.70;18.17;;;5.00;99.90;;;;;;4994551;28;20202;-63
2021/03/31 05:37:43;;;;;;;26.27;18.47;;;5.10;99.90;;;;;;4994822;28;20256;-62
2021/03/31 05:40:11;;;;;;;24.70;18.67;;;5.20;99.90;;;;;;4993539;28;20582;-62
2021/03/31 05:42:38;;;;;;;27.10;17.93;;;5.20;99.90;;;;;;4994586;28;20202;-61
2021/03/31 05:45:06;;;;;;;24.93;17.97;;;5.20;99.90;;;;;;4992844;28;20221;-61
2021/03/31 05:47:35;;;;;;;25.87;18.60;;;5.30;99.90;;;;;;4989528;28;20659;-63
2021/03/31 05:50:03;;;;;;;25.00;18.23;;;5.30;99.90;;;;;;4994156;28;20221;-62
2021/03/31 05:52:30;;;;;;;22.20;17.13;;;5.40;99.90;;;;;;4994381;28;20693;-62
2021/03/31 05:55:01;;;;;;;28.60;20.17;;;5.50;99.90;;;;;;4994576;28;20197;-62
2021/03/31 05:57:29;;;;;;;25.30;18.67;;;5.60;99.90;;;;;;4993856;28;20221;-64
2021/03/31 05:59:55;;;;;;;28.10;20.10;;;5.70;99.90;;;;;;4994415;28;20260;-61
2021/03/31 06:02:22;;;;;;;24.60;19.00;;;5.80;99.90;;;;;;4992430;28;20202;-62
2021/03/31 06:04:51;;;;;;;28.33;20.77;;;5.90;99.90;;;;;;4993097;28;20202;-61
2021/03/31 06:07:18;;;;;;;28.90;20.83;;;6.00;99.90;;;;;;4994378;28;20198;-61
2021/03/31 06:10:12;;;;;;;30.10;21.40;;;6.30;99.90;;;;;;4993951;28;20198;-62
2021/03/31 06:12:41;;;;;;;29.83;20.07;;;7.30;99.90;;;;;;4993864;28;20197;-62
2021/03/31 06:15:20;;;;;;;23.67;16.53;;;8.40;99.90;;;;;;4992231;28;20198;-62
2021/03/31 06:17:49;;;;;;;22.10;15.77;;;9.40;99.90;;;;;;4990923;28;20222;-61
2021/03/31 06:20:37;;;;;;;20.10;14.20;;;10.30;99.90;;;;;;4992370;28;20209;-62
2021/03/31 06:23:11;;;;;;;20.30;14.30;;;11.00;99.90;;;;;;4992833;28;20198;-62
2021/03/31 06:25:47;;;;;;;22.73;14.83;;;11.70;99.90;;;;;;4994044;28;20217;-62
2021/03/31 06:28:13;;;;;;;22.00;13.70;;;12.30;99.90;;;;;;4993593;28;20224;-62
2021/03/31 06:30:40;;;;;;;19.07;14.30;;;12.90;99.90;;;;;;4993521;28;20230;-65
2021/03/31 06:33:07;;;;;;;20.07;14.10;;;13.50;99.90;;;;;;4993508;28;20206;-63
2021/03/31 06:35:33;;;;;;;19.60;14.60;;;14.10;99.90;;;;;;4993637;28;20194;-62
2021/03/31 06:38:05;;;;;;;16.60;13.50;;;14.60;99.90;;;;;;4991889;28;20733;-62
2021/03/31 06:40:37;;;;;;;18.73;14.13;;;15.20;99.90;;;;;;4991784;28;20205;-63
2021/03/31 06:43:13;;;;;;;21.23;15.17;;;15.70;99.90;;;;;;4993559;28;20194;-69
2021/03/31 06:45:48;;;;;;;23.20;15.13;;;16.40;99.90;;;;;;4991325;28;20659;-63
2021/03/31 06:48:15;;;;;;;21.73;16.03;;;16.90;99.90;;;;;;4993484;28;20233;-62
2021/03/31 06:50:41;;;;;;;16.63;14.70;;;17.40;99.90;;;;;;4993280;28;20655;-63
2021/03/31 06:53:08;;;;;;;18.13;14.97;;;17.90;99.90;;;;;;4993643;28;20198;-63
2021/03/31 06:55:34;;;;;;;19.08;17.02;;;18.40;99.90;;;;;;4992223;28;20205;-66
2021/03/31 06:58:04;;;;;;;17.20;15.50;;;18.80;99.90;;;;;;4991848;28;20237;-63
2021/03/31 07:00:33;;;;;;;17.95;16.10;;;19.00;99.90;;;;;;4991873;28;20205;-65
2021/03/31 07:03:02;;;;;;;17.85;16.05;;;19.20;99.90;;;;;;4993028;28;20209;-64
2021/03/31 07:05:30;;;;;;;22.23;17.02;;;19.40;99.90;;;;;;4993061;28;20198;-64
2021/03/31 07:08:05;;;;;;;19.42;17.02;;;19.90;99.90;;;;;;4990797;28;20206;-63
2021/03/31 07:10:41;;;;;;;19.80;17.42;;;20.20;99.90;;;;;;4985225;28;20693;-65
2021/03/31 07:13:08;;;;;;;22.08;19.77;;;20.40;99.90;;;;;;4973817;28;20556;-65
2021/03/31 07:15:35;;;;;;;22.05;19.60;;;20.40;99.90;;;;;;4988838;28;20551;-63
2021/03/31 07:18:03;;;;;;;20.38;18.27;;;20.60;99.90;;;;;;4992841;28;20237;-62
2021/03/31 07:20:31;;;;;;;21.35;19.02;;;20.50;99.90;;;;;;4991838;28;20198;-66
2021/03/31 07:23:01;;;;;;;22.95;19.48;;;20.30;99.90;;;;;;4990958;28;20208;-65
2021/03/31 07:25:28;;;;;;;22.95;20.20;;;19.60;99.90;;;;;;4991515;28;20710;-62
2021/03/31 07:27:57;;;;;;;22.30;19.95;;;18.80;99.90;;;;;;4991380;28;20197;-65
2021/03/31 07:30:26;;;;;;;24.52;20.05;;;18.30;99.90;;;;;;4987659;28;20590;-62
2021/03/31 07:32:57;;;;;;;23.10;20.02;;;18.10;99.90;;;;;;4986117;28;20659;-63
2021/03/31 07:35:26;;;;;;;25.40;20.83;;;18.00;99.90;;;;;;4980513;28;20674;-61
2021/03/31 07:37:54;;;;;;;24.70;20.90;;;17.90;99.90;;;;;;4982919;28;20596;-62
2021/03/31 07:40:21;;;;;;;22.63;20.03;;;17.80;99.90;;;;;;4985522;28;20264;-63
2021/03/31 07:42:55;;;;;;;24.10;20.53;;;17.70;99.90;;;;;;4985325;28;20197;-62
2021/03/31 07:45:25;;;;;;;27.20;20.77;;;17.60;99.90;;;;;;4982731;28;20624;-60
2021/03/31 07:47:53;;;;;;;25.57;21.27;;;17.40;99.90;;;;;;4981791;28;20656;-64
2021/03/31 07:50:20;;;;;;;25.40;20.43;;;17.30;99.90;;;;;;4987019;28;20206;-70
2021/03/31 07:52:54;;;;;;;24.90;20.60;;;17.20;99.90;;;;;;4986296;28;20204;-65
2021/03/31 07:55:39;;;;;;;27.13;20.73;;;17.00;99.90;;;;;;4981193;28;20211;-63
2021/03/31 07:58:28;;;;;;;26.50;21.00;;;17.20;99.90;;;;;;4980566;28;20268;-64
2021/03/31 08:00:58;;;;;;;27.50;21.37;;;17.90;99.90;;;;;;4980351;28;20197;-60
2021/03/31 08:03:27;;;;;;;24.00;20.97;;;18.50;99.90;;;;;;4988305;28;20280;-62
2021/03/31 08:06:16;;;;;;;22.95;20.50;;;18.80;99.90;;;;;;4990611;28;20206;-61
2021/03/31 08:09:02;;;;;;;25.75;20.70;;;19.30;99.90;;;;;;4971790;28;20227;-63
2021/03/31 08:12:02;;;;;;;24.95;21.92;;;20.30;99.90;;;;;;4987711;28;20186;-65
2021/03/31 08:14:44;;;;;;;26.50;21.85;;;20.90;99.90;;;;;;4981414;28;20198;-62
2021/03/31 08:17:13;;;;;;;28.80;22.90;;;20.90;99.90;;;;;;4986164;28;20284;-63
2021/03/31 08:19:42;;;;;;;28.73;23.05;;;20.80;99.90;;;;;;4978610;28;20698;-63
2021/03/31 08:22:38;;;;;;;26.77;23.42;;;21.20;99.90;;;;;;4984791;28;20206;-63
2021/03/31 08:25:20;;;;;;;28.05;23.42;;;22.10;99.90;;;;;;4938792;29;20222;-64
2021/03/31 08:28:04;;;;;;;29.77;23.30;;;22.90;99.90;;;;;;4980515;28;20202;-63
2021/03/31 08:30:32;;;;;;;28.77;23.67;;;23.60;99.90;;;;;;4988960;28;20233;-64
2021/03/31 08:32:58;;;;;;;28.73;24.05;;;24.20;99.90;;;;;;4980793;28;20197;-65
2021/03/31 08:35:28;;;;;;;26.65;23.25;;;24.50;99.90;;;;;;4985614;28;20681;-64
2021/03/31 08:37:56;;;;;;;26.67;23.58;;;24.70;99.90;;;;;;4982806;28;20222;-67
2021/03/31 08:40:22;;;;;;;31.98;26.30;;;24.90;99.90;;;;;;4981780;28;20664;-69
2021/03/31 08:42:51;;;;;;;36.33;25.88;;;25.00;99.90;;;;;;4981640;28;20557;-65
2021/03/31 08:45:30;;;;;;;30.63;25.13;;;25.00;99.90;;;;;;4982562;28;20603;-65
2021/03/31 08:47:58;;;;;;;31.17;25.60;;;25.50;99.90;;;;;;4985795;28;20206;-64
2021/03/31 08:50:29;;;;;;;30.30;26.25;;;25.60;99.90;;;;;;4973624;28;20289;-64
2021/03/31 08:53:01;;;;;;;34.30;27.83;;;25.70;99.90;;;;;;4981344;28;20198;-64
2021/03/31 08:55:34;;;;;;;33.30;27.10;;;25.70;99.90;;;;;;4976603;28;20202;-65
2021/03/31 08:58:05;;;;;;;33.03;28.25;;;26.00;99.90;;;;;;4990290;28;20611;-64
2021/03/31 09:00:41;;;;;;;34.53;27.73;;;26.00;99.90;;;;;;4983707;28;20293;-66
2021/03/31 09:03:08;;;;;;;33.55;27.85;;;26.00;99.90;;;;;;4986833;28;20263;-65
2021/03/31 09:05:36;;;;;;;33.25;29.63;;;25.90;99.90;;;;;;4984689;28;20233;-64
2021/03/31 09:08:03;;;;;;;38.53;29.58;;;26.10;99.90;;;;;;4976211;28;20253;-67
2021/03/31 09:10:29;;;;;;;35.45;28.17;;;26.10;99.90;;;;;;4987844;28;20201;-66
2021/03/31 09:12:56;;;;;;;35.63;28.70;;;26.70;99.90;;;;;;4986522;28;20576;-66
2021/03/31 09:15:23;;;;;;;35.30;29.42;;;26.90;99.90;;;;;;4987990;28;20206;-67
2021/03/31 09:17:55;;;;;;;37.85;29.35;;;26.90;99.90;;;;;;4989586;28;20699;-69
2021/03/31 09:20:21;;;;;;;35.53;29.38;;;27.00;99.90;;;;;;4983140;28;20197;-68
2021/03/31 09:22:49;;;;;;;38.28;30.38;;;27.30;99.90;;;;;;4984263;28;20241;-67
2021/03/31 09:25:18;;;;;;;41.35;32.05;;;27.40;99.90;;;;;;4990874;28;20206;-67
2021/03/31 09:27:45;;;;;;;39.78;31.48;;;27.30;99.90;;;;;;4985986;28;20704;-69
2021/03/31 09:30:14;;;;;;;39.40;31.35;;;27.50;99.90;;;;;;4985000;28;20242;-66
2021/03/31 09:32:47;;;;;;;38.92;30.42;;;28.00;99.30;;;;;;4989640;28;20234;-65
2021/03/31 09:35:15;;;;;;;38.30;29.27;;;28.10;98.80;;;;;;4989173;28;20201;-65
2021/03/31 09:37:42;;;;;;;36.97;29.77;;;28.70;96.70;;;;;;4992894;28;20241;-65
2021/03/31 09:40:18;;;;;;;39.42;29.95;;;29.00;98.10;;;;;;4991772;28;20565;-65
2021/03/31 09:42:44;;;;;;;36.90;29.77;;;29.20;95.70;;;;;;4992915;28;20216;-68
2021/03/31 09:45:13;;;;;;;39.63;30.65;;;29.70;94.30;;;;;;5002582;28;20597;-67
2021/03/31 09:47:40;;;;;;;40.55;30.83;;;30.10;92.80;;;;;;5001937;28;20256;-67
2021/03/31 09:50:08;;;;;;;39.90;30.27;;;30.20;91.60;;;;;;4989325;28;20229;-66
2021/03/31 09:52:35;;;;;;;43.03;29.63;;;30.00;91.30;;;;;;4983451;28;20269;-66
2021/03/31 09:55:05;;;;;;;36.67;28.83;;;30.00;89.70;;;;;;4991704;28;20214;-67
2021/03/31 09:57:35;;;;;;;37.50;29.50;;;29.50;87.70;;;;;;4988903;28;20236;-67
2021/03/31 10:00:03;;;;;;;36.30;27.55;;;29.50;88.90;;;;;;4982957;28;20589;-66
2021/03/31 10:02:30;;;;;;;34.97;28.17;;;29.60;88.40;;;;;;4990303;28;20224;-65
2021/03/31 10:05:01;;;;;;;35.03;28.13;;;29.80;88.90;;;;;;5003583;28;20201;-66
2021/03/31 10:07:27;;;;;;;39.03;29.35;;;30.20;86.50;;;;;;4981987;28;20655;-66
2021/03/31 10:09:54;;;;;;;38.78;27.80;;;30.50;84.20;;;;;;4980202;28;20193;-67
2021/03/31 10:12:22;;;;;;;37.38;28.13;;;30.70;81.90;;;;;;4986054;28;20198;-65
2021/03/31 10:14:53;;;;;;;37.63;27.48;;;30.50;81.70;;;;;;4990565;28;20288;-66
2021/03/31 10:17:21;;;;;;;39.83;26.83;;;30.60;82.40;;;;;;4975167;28;20213;-65
2021/03/31 10:19:48;;;;;;;34.25;26.25;;;30.50;79.70;;;;;;4975709;28;20210;-64
2021/03/31 10:22:16;;;;;;;36.85;27.10;;;30.80;79.20;;;;;;4983000;28;20212;-66
2021/03/31 10:24:44;;;;;;;36.20;26.65;;;30.40;79.70;;;;;;4993530;28;20206;-64
2021/03/31 10:27:12;;;;;;;36.58;27.10;;;30.20;80.80;;;;;;4982789;28;20203;-65
2021/03/31 10:29:46;;;;;;;35.03;27.20;;;30.00;80.40;;;;;;4986413;28;20204;-67
2021/03/31 10:32:16;;;;;;;37.10;26.92;;;30.00;82.50;;;;;;4991263;28;20291;-65
2021/03/31 10:34:46;;;;;;;36.35;27.85;;;29.60;80.50;;;;;;4973197;28;20202;-67
2021/03/31 10:37:18;;;;;;;36.53;24.00;;;29.90;81.10;;;;;;4973885;28;20660;-65
2021/03/31 10:40:22;;;;;;;29.80;21.48;;;30.00;77.30;;;;;;4978992;28;20563;-64
2021/03/31 10:48:37;;;;;;;34.03;21.27;;;29.70;69.80;;;;;;4987116;28;20385;-67
2021/03/31 10:51:09;;;;;;;23.92;16.17;;;29.20;72.20;;;;;;4985005;28;20268;-65
2021/03/31 10:53:39;;;;;;;22.30;15.95;;;28.70;67.80;;;;;;4989483;28;20210;-65
2021/03/31 10:56:06;;;;;;;25.50;17.27;;;28.30;69.40;;;;;;4993566;28;20225;-66
2021/03/31 10:58:33;;;;;;;24.38;15.55;;;27.90;72.80;;;;;;4981753;28;20226;-65
2021/03/31 11:01:00;;;;;;;24.33;17.70;;;27.40;71.80;;;;;;4977572;28;20199;-65
2021/03/31 11:03:27;;;;;;;23.25;15.40;;;27.20;71.50;;;;;;4988430;28;20244;-64
2021/03/31 11:05:54;;;;;;;23.20;15.52;;;26.70;72.60;;;;;;4990211;28;20330;-64
2021/03/31 11:08:21;;;;;;;23.00;16.48;;;26.40;73.10;;;;;;4992834;28;20284;-65
2021/03/31 11:10:48;;;;;;;18.33;13.05;;;26.30;73.10;;;;;;4990412;28;20213;-66
2021/03/31 11:13:15;;;;;;;23.17;16.05;;;26.70;70.00;;;;;;4986315;28;20218;-65
2021/03/31 11:15:41;;;;;;;23.65;16.02;;;26.90;72.80;;;;;;4973227;28;20261;-64
2021/03/31 11:18:14;;;;;;;27.70;17.70;;;27.20;71.90;;;;;;4984373;28;20569;-64
2021/03/31 11:20:55;;;;;;;25.65;18.98;;;27.40;74.10;;;;;;4990052;28;20204;-64
2021/03/31 11:26:06;;;;;;;27.42;19.58;;;27.20;77.10;;;;;;4973683;28;20573;-63
2021/03/31 11:28:36;;;;;;;25.80;17.42;;;27.10;76.40;;;;;;4975579;28;20207;-64
2021/03/31 11:31:03;;;;;;;22.13;15.82;;;27.00;76.20;;;;;;4989317;28;20233;-64
2021/03/31 11:33:29;;;;;;;23.27;15.80;;;27.00;74.60;;;;;;4973538;28;20203;-64
2021/03/31 11:35:57;;;;;;;19.45;14.18;;;27.30;75.80;;;;;;4976018;28;20326;-65
2021/03/31 11:38:23;;;;;;;16.17;13.07;;;27.50;73.00;;;;;;4973197;28;20296;-64
2021/03/31 11:40:50;;;;;;;17.58;13.43;;;27.60;71.60;;;;;;4989803;28;20240;-64
2021/03/31 11:43:17;;;;;;;16.45;12.38;;;27.90;72.80;;;;;;4974015;28;20792;-64
2021/03/31 11:45:45;;;;;;;14.23;10.43;;;28.20;68.10;;;;;;4973093;28;20615;-65
2021/03/31 11:48:12;;;;;;;14.18;11.27;;;28.30;66.40;;;;;;4981724;28;20654;-66
2021/03/31 11:50:38;;;;;;;16.90;13.77;;;28.80;66.40;;;;;;4991814;28;20344;-64
2021/03/31 11:53:05;;;;;;;15.80;14.07;;;29.40;68.20;;;;;;4991691;28;20201;-64
2021/03/31 11:55:32;;;;;;;17.10;13.13;;;29.80;67.50;;;;;;4986837;28;20242;-64
2021/03/31 11:57:58;;;;;;;14.57;12.55;;;30.20;68.80;;;;;;4973222;28;20229;-64
2021/03/31 12:00:25;;;;;;;15.50;13.35;;;30.50;67.70;;;;;;4986842;28;20210;-64
2021/03/31 12:02:52;;;;;;;17.90;14.20;;;30.80;65.00;;;;;;4972343;28;20590;-64
2021/03/31 12:05:19;;;;;;;16.92;13.80;;;31.20;63.00;;;;;;4972842;28;20672;-64
2021/03/31 12:07:45;;;;;;;15.77;13.15;;;31.40;62.40;;;;;;4988997;28;20201;-65
2021/03/31 12:10:14;;;;;;;14.18;12.68;;;31.60;63.70;;;;;;4976628;28;20252;-65
2021/03/31 12:12:42;;;;;;;13.68;11.05;;;31.30;62.60;;;;;;4975996;28;20659;-64
2021/03/31 12:15:11;;;;;;;14.52;11.90;;;31.20;60.20;;;;;;4988990;28;20209;-64
2021/03/31 12:17:38;;;;;;;13.23;11.10;;;31.30;60.20;;;;;;4986648;28;20233;-64
2021/03/31 12:20:07;;;;;;;11.98;9.65;;;31.20;61.50;;;;;;4991166;28;20566;-64
2021/03/31 12:22:33;;;;;;;15.93;11.10;;;31.40;58.00;;;;;;4992451;28;20201;-64
2021/03/31 12:25:00;;;;;;;13.55;12.07;;;31.70;59.50;;;;;;4984646;28;20198;-63
2021/03/31 12:27:29;;;;;;;14.52;11.55;;;31.80;58.20;;;;;;4974935;28;20710;-64
2021/03/31 12:29:55;;;;;;;15.15;11.20;;;31.80;59.70;;;;;;4982091;28;20212;-64
2021/03/31 12:32:22;;;;;;;13.63;11.98;;;32.00;59.00;;;;;;4987742;28;20194;-64
2021/03/31 12:34:48;;;;;;;13.23;11.82;;;32.10;58.30;;;;;;4978804;28;20616;-64
2021/03/31 12:37:15;;;;;;;15.27;10.63;;;32.30;58.70;;;;;;4986904;28;20229;-64
2021/03/31 12:39:42;;;;;;;12.35;11.07;;;32.20;58.80;;;;;;4992532;28;20201;-64
2021/03/31 12:42:08;;;;;;;13.57;11.68;;;31.90;59.40;;;;;;4976139;28;20210;-64
2021/03/31 12:44:36;;;;;;;12.98;10.88;;;31.70;59.50;;;;;;4984561;28;20213;-63
2021/03/31 12:47:03;;;;;;;15.40;11.57;;;31.60;62.40;;;;;;4976452;28;20206;-63
2021/03/31 12:49:30;;;;;;;14.55;11.52;;;31.90;58.20;;;;;;4980659;28;20205;-63